Time;durP1;ratioP1;P1;durP2;ratioP2;P2;SDS_P1;SDS_P2;PMS_P1;PMS_P2;Temp;Humidity;BMP_temperature;BMP_pressure;BME280_temperature;BME280_humidity;BME280_pressure;Samples;Min_cycle;Max_cycle;Signal;HPM_P1;HPM_P2
2023/04/18 00:01:23;;;;;;;8.80;3.88;;;19.70;1.00;;;;;;5055990;28;20347;-37
2023/04/18 00:03:50;;;;;;;8.10;3.90;;;19.70;1.00;;;;;;5054980;28;20045;-37
2023/04/18 00:06:20;;;;;;;8.20;4.63;;;19.70;1.00;;;;;;5055765;28;20037;-37
2023/04/18 00:08:48;;;;;;;5.68;4.07;;;19.70;1.00;;;;;;5055993;28;20475;-36
2023/04/18 00:11:14;;;;;;;5.90;4.35;;;19.60;1.00;;;;;;5055758;28;20040;-37
2023/04/18 00:13:41;;;;;;;6.40;3.40;;;19.60;1.00;;;;;;5054871;28;20076;-37
2023/04/18 00:16:08;;;;;;;5.90;4.00;;;19.60;1.00;;;;;;5055439;28;20079;-37
2023/04/18 00:18:35;;;;;;;6.38;3.95;;;19.50;1.00;;;;;;5055854;28;20040;-36
2023/04/18 00:21:03;;;;;;;5.43;3.42;;;19.50;1.00;;;;;;5055372;28;20048;-37
2023/04/18 00:23:30;;;;;;;7.20;4.07;;;19.50;1.00;;;;;;5054815;28;20048;-37
2023/04/18 00:25:57;;;;;;;8.73;4.22;;;19.50;1.00;;;;;;5055347;28;20037;-37
2023/04/18 00:28:23;;;;;;;5.35;3.50;;;19.40;1.00;;;;;;5055327;28;20072;-37
2023/04/18 00:30:50;;;;;;;6.60;4.10;;;19.50;1.00;;;;;;5055262;28;20135;-37
2023/04/18 00:33:17;;;;;;;7.10;4.20;;;19.40;1.00;;;;;;5054490;28;20045;-37
2023/04/18 00:35:44;;;;;;;7.97;4.05;;;19.40;1.00;;;;;;5053933;28;20045;-37
2023/04/18 00:38:12;;;;;;;5.78;3.30;;;19.40;1.00;;;;;;5054006;28;20064;-37
2023/04/18 00:40:39;;;;;;;8.45;4.30;;;19.40;1.00;;;;;;5053869;28;20068;-37
2023/04/18 00:43:07;;;;;;;6.90;4.70;;;19.40;1.00;;;;;;5052856;28;20580;-37
2023/04/18 00:45:34;;;;;;;6.97;3.40;;;19.30;1.00;;;;;;5055008;28;20044;-37
2023/04/18 00:48:01;;;;;;;7.35;3.88;;;19.30;1.00;;;;;;5053653;28;20037;-35
2023/04/18 00:50:29;;;;;;;5.78;3.60;;;19.30;1.00;;;;;;5053723;28;20044;-36
2023/04/18 00:52:56;;;;;;;8.82;4.53;;;19.20;1.00;;;;;;5054192;28;20048;-35
2023/04/18 00:55:23;;;;;;;4.53;3.60;;;19.20;1.00;;;;;;5053613;28;20061;-35
2023/04/18 00:57:51;;;;;;;7.85;4.28;;;19.20;1.00;;;;;;5053267;28;20053;-38
2023/04/18 01:00:17;;;;;;;6.47;3.92;;;19.20;1.00;;;;;;5054981;28;20048;-36
2023/04/18 01:02:45;;;;;;;11.82;4.18;;;19.20;1.00;;;;;;5053958;28;20561;-36
2023/04/18 01:05:12;;;;;;;7.25;4.10;;;19.20;1.00;;;;;;5053602;28;20040;-35
2023/04/18 01:07:40;;;;;;;6.57;4.43;;;19.10;1.00;;;;;;5053334;28;20428;-36
2023/04/18 01:10:09;;;;;;;8.10;3.75;;;19.10;1.00;;;;;;5054658;28;20451;-36
2023/04/18 01:12:36;;;;;;;5.88;3.70;;;19.10;1.00;;;;;;5052755;28;20056;-36
2023/04/18 01:15:06;;;;;;;6.53;4.28;;;19.10;1.00;;;;;;5053473;28;20500;-36
2023/04/18 01:17:35;;;;;;;10.98;4.40;;;19.10;1.00;;;;;;5053031;28;20045;-36
2023/04/18 01:20:05;;;;;;;6.20;3.83;;;19.10;1.00;;;;;;5054472;28;20037;-36
2023/04/18 01:22:32;;;;;;;4.97;3.83;;;19.00;1.00;;;;;;5052723;28;20051;-36
2023/04/18 01:24:59;;;;;;;9.82;4.72;;;19.00;1.00;;;;;;5052599;28;20060;-36
2023/04/18 01:27:26;;;;;;;4.80;3.47;;;19.00;1.00;;;;;;5054131;28;20056;-36
2023/04/18 01:29:53;;;;;;;7.57;3.95;;;19.00;1.00;;;;;;5052920;28;20053;-36
2023/04/18 01:32:20;;;;;;;8.65;4.80;;;19.00;1.00;;;;;;5053929;28;20040;-36
2023/04/18 01:34:46;;;;;;;8.52;3.88;;;18.90;1.00;;;;;;5052919;28;20068;-36
2023/04/18 01:37:13;;;;;;;6.43;4.38;;;19.00;1.00;;;;;;5052910;28;20056;-36
2023/04/18 01:39:40;;;;;;;9.88;4.05;;;18.90;1.00;;;;;;5053638;28;20118;-36
2023/04/18 01:42:06;;;;;;;8.23;4.32;;;18.90;1.00;;;;;;5053401;28;20116;-36
2023/04/18 01:44:33;;;;;;;7.53;4.18;;;18.90;1.00;;;;;;5051634;28;20045;-36
2023/04/18 01:47:00;;;;;;;8.63;3.58;;;18.90;1.00;;;;;;5044909;28;20046;-36
2023/04/18 01:49:27;;;;;;;6.57;3.97;;;18.90;1.00;;;;;;5044444;28;20044;-36
2023/04/18 01:51:54;;;;;;;6.78;4.28;;;18.90;1.00;;;;;;5052606;28;20045;-36
2023/04/18 01:54:20;;;;;;;8.30;3.40;;;18.80;1.00;;;;;;5053026;28;20052;-37
2023/04/18 01:56:47;;;;;;;7.03;4.22;;;18.80;1.00;;;;;;5052111;28;20053;-36
2023/04/18 01:59:14;;;;;;;7.07;3.78;;;18.80;1.00;;;;;;5052348;28;20049;-36
2023/04/18 02:01:41;;;;;;;10.73;4.38;;;18.80;1.00;;;;;;5052451;28;20087;-36
2023/04/18 02:04:08;;;;;;;5.55;3.95;;;18.80;1.00;;;;;;5051738;28;20128;-36
2023/04/18 02:06:35;;;;;;;8.98;4.82;;;18.70;1.00;;;;;;5052138;28;20065;-36
2023/04/18 02:09:02;;;;;;;4.53;3.53;;;18.80;1.00;;;;;;5052413;28;20045;-36
2023/04/18 02:11:29;;;;;;;6.72;4.05;;;18.70;1.00;;;;;;5052094;28;20041;-36
2023/04/18 02:13:56;;;;;;;5.90;4.20;;;18.70;1.00;;;;;;5051506;28;20045;-36
2023/04/18 02:16:23;;;;;;;10.13;4.07;;;18.70;1.00;;;;;;5053168;28;20049;-36
2023/04/18 02:18:51;;;;;;;6.60;3.92;;;18.70;1.00;;;;;;5052059;28;20131;-35
2023/04/18 02:21:18;;;;;;;5.75;3.97;;;18.70;1.00;;;;;;5053172;28;20041;-36
2023/04/18 02:23:44;;;;;;;5.70;4.07;;;18.70;1.00;;;;;;5051247;28;20492;-36
2023/04/18 02:26:11;;;;;;;9.80;4.30;;;18.70;1.00;;;;;;5051845;28;20504;-36
2023/04/18 02:28:38;;;;;;;7.80;3.95;;;18.60;1.00;;;;;;5051912;28;20087;-36
2023/04/18 02:31:06;;;;;;;7.78;3.70;;;18.60;1.00;;;;;;5051771;28;20520;-36
2023/04/18 02:33:33;;;;;;;7.90;4.00;;;18.60;1.00;;;;;;5050825;28;20075;-36
2023/04/18 02:36:00;;;;;;;5.47;3.72;;;18.60;1.00;;;;;;5052990;28;20041;-36
2023/04/18 02:38:27;;;;;;;7.05;4.22;;;18.50;1.00;;;;;;5052642;28;20045;-36
2023/04/18 02:40:54;;;;;;;5.70;3.75;;;18.50;1.00;;;;;;5035161;28;20053;-36
2023/04/18 02:43:21;;;;;;;5.75;3.60;;;18.50;1.00;;;;;;5050714;28;20067;-36
2023/04/18 02:45:49;;;;;;;8.18;4.28;;;18.50;1.00;;;;;;5051342;28;20102;-42
2023/04/18 02:48:49;;;;;;;7.65;3.75;;;18.50;1.00;;;;;;4966977;28;20510;-35
2023/04/18 02:51:21;;;;;;;7.55;3.95;;;18.50;1.00;;;;;;4971359;28;20061;-35
2023/04/18 02:53:48;;;;;;;7.22;4.13;;;18.40;1.00;;;;;;4973251;28;20046;-35
2023/04/18 02:56:16;;;;;;;5.45;3.97;;;18.40;1.00;;;;;;4972564;28;20574;-35
2023/04/18 02:59:03;;;;;;;5.78;3.42;;;18.40;1.00;;;;;;4965902;28;20051;-35
2023/04/18 03:01:56;;;;;;;8.30;3.67;;;18.40;1.00;;;;;;4958125;28;20047;-35
2023/04/18 03:04:23;;;;;;;6.47;3.90;;;18.40;1.00;;;;;;4971800;28;20046;-35
2023/04/18 03:07:05;;;;;;;4.65;3.35;;;18.30;1.00;;;;;;4972407;28;20494;-35
2023/04/18 03:09:35;;;;;;;5.90;3.35;;;18.30;1.00;;;;;;4972420;28;20043;-35
2023/04/18 03:12:08;;;;;;;4.78;3.63;;;18.30;1.00;;;;;;4972436;28;20049;-35
2023/04/18 03:14:36;;;;;;;8.48;4.20;;;18.30;1.00;;;;;;4988009;28;20074;-35
2023/04/18 03:17:04;;;;;;;6.47;3.83;;;18.30;1.00;;;;;;4988490;28;20395;-35
2023/04/18 03:19:37;;;;;;;8.88;3.10;;;18.20;1.00;;;;;;4972519;28;20058;-35
2023/04/18 03:22:08;;;;;;;6.35;3.80;;;18.30;1.00;;;;;;4988412;28;20487;-35
2023/04/18 03:24:40;;;;;;;6.85;3.88;;;18.20;1.00;;;;;;4971906;28;20093;-35
2023/04/18 03:27:08;;;;;;;5.95;3.10;;;18.20;1.00;;;;;;4971754;28;20051;-35
2023/04/18 03:29:37;;;;;;;5.55;3.33;;;18.20;1.00;;;;;;4972302;28;20047;-35
2023/04/18 03:32:04;;;;;;;4.63;3.25;;;18.20;1.00;;;;;;4972198;28;20078;-35
2023/04/18 03:34:31;;;;;;;4.57;3.33;;;18.20;1.00;;;;;;4972694;28;20079;-35
2023/04/18 03:36:59;;;;;;;4.50;3.30;;;18.20;1.00;;;;;;4988104;28;20046;-35
2023/04/18 03:39:28;;;;;;;7.18;4.13;;;18.10;1.00;;;;;;4972199;28;20046;-35
2023/04/18 03:41:56;;;;;;;6.05;3.00;;;18.10;1.00;;;;;;4971935;28;20141;-35
2023/04/18 03:44:23;;;;;;;8.18;4.25;;;18.10;1.00;;;;;;4972496;28;20097;-35
2023/04/18 03:46:49;;;;;;;4.88;3.03;;;18.10;1.00;;;;;;4971760;28;20394;-35
2023/04/18 03:49:16;;;;;;;4.97;2.85;;;18.00;1.00;;;;;;4972419;28;20047;-35
2023/04/18 03:51:46;;;;;;;6.22;3.70;;;18.00;1.00;;;;;;4972061;28;20070;-35
2023/04/18 03:54:15;;;;;;;6.07;2.58;;;18.10;1.00;;;;;;4971049;28;20043;-36
2023/04/18 03:56:43;;;;;;;5.05;3.20;;;18.00;1.00;;;;;;4971728;28;20512;-35
2023/04/18 03:59:11;;;;;;;5.65;2.95;;;18.00;1.00;;;;;;4971767;28;20400;-35
2023/04/18 04:01:40;;;;;;;3.95;2.90;;;18.00;1.00;;;;;;4971917;28;20138;-35
2023/04/18 04:04:08;;;;;;;3.72;2.65;;;18.00;1.00;;;;;;4971012;28;20070;-35
2023/04/18 04:06:35;;;;;;;6.10;3.15;;;18.00;1.00;;;;;;4972099;28;20094;-35
2023/04/18 04:09:02;;;;;;;5.75;3.08;;;18.00;1.00;;;;;;4987764;28;20515;-35
2023/04/18 04:11:29;;;;;;;6.18;2.78;;;17.90;1.00;;;;;;4971723;28;20054;-35
2023/04/18 04:13:56;;;;;;;5.57;2.72;;;17.90;1.00;;;;;;4970992;28;20066;-35
2023/04/18 04:16:29;;;;;;;15.05;3.25;;;17.90;1.00;;;;;;4971773;28;20047;-35
2023/04/18 04:18:56;;;;;;;6.35;3.08;;;17.90;1.00;;;;;;4970428;28;20047;-35
2023/04/18 04:21:30;;;;;;;3.88;2.72;;;17.90;1.00;;;;;;4968231;28;20054;-35
2023/04/18 04:23:57;;;;;;;14.18;2.97;;;17.90;1.00;;;;;;4984542;28;20039;-35
2023/04/18 04:26:37;;;;;;;2.85;2.10;;;17.80;1.00;;;;;;4980324;28;20039;-35
2023/04/18 04:29:15;;;;;;;8.40;2.55;;;17.80;1.00;;;;;;4971922;28;20494;-33
2023/04/18 04:31:44;;;;;;;8.23;3.35;;;17.80;1.00;;;;;;4970443;28;20046;-34
2023/04/18 04:34:11;;;;;;;5.35;2.58;;;17.80;1.00;;;;;;4958894;28;20548;-33
2023/04/18 04:36:40;;;;;;;6.05;2.55;;;17.80;1.00;;;;;;4973791;28;20046;-34
2023/04/18 04:39:08;;;;;;;6.25;2.45;;;17.80;1.00;;;;;;4952690;28;20414;-33
2023/04/18 04:41:53;;;;;;;5.18;2.80;;;17.70;1.00;;;;;;4958327;28;20127;-34
2023/04/18 04:44:24;;;;;;;3.08;2.20;;;17.70;1.00;;;;;;4974144;28;20525;-34
2023/04/18 04:46:53;;;;;;;8.27;2.45;;;17.70;1.00;;;;;;4972331;28;20553;-34
2023/04/18 04:49:24;;;;;;;8.10;2.85;;;17.70;1.00;;;;;;4967149;28;20043;-34
2023/04/18 04:51:50;;;;;;;4.32;2.63;;;17.70;1.00;;;;;;4988725;28;20046;-33
2023/04/18 04:54:18;;;;;;;2.83;2.03;;;17.70;1.00;;;;;;4973280;28;20483;-34
2023/04/18 04:56:45;;;;;;;4.80;2.60;;;17.70;1.00;;;;;;4974850;28;20491;-34
2023/04/18 04:59:12;;;;;;;8.50;2.25;;;17.70;1.00;;;;;;4974963;28;20046;-35
2023/04/18 05:01:42;;;;;;;3.60;2.20;;;17.70;1.00;;;;;;4990451;28;20053;-34
2023/04/18 05:04:09;;;;;;;4.13;2.00;;;17.60;1.00;;;;;;4974067;28;20043;-34
2023/04/18 05:06:36;;;;;;;3.22;2.30;;;17.60;1.00;;;;;;4975609;28;20042;-34
2023/04/18 05:09:05;;;;;;;6.03;2.30;;;17.60;1.00;;;;;;4975904;28;20077;-35
2023/04/18 05:11:32;;;;;;;7.68;2.33;;;17.60;1.00;;;;;;4975748;28;20049;-34
2023/04/18 05:13:59;;;;;;;4.38;2.72;;;17.60;1.00;;;;;;4975012;28;20046;-34
2023/04/18 05:16:26;;;;;;;4.90;2.03;;;17.60;1.00;;;;;;4975626;28;20506;-35
2023/04/18 05:18:53;;;;;;;4.10;2.92;;;17.60;1.00;;;;;;4975720;28;20446;-35
2023/04/18 05:21:19;;;;;;;3.20;2.10;;;17.60;1.00;;;;;;4975626;28;20509;-35
2023/04/18 05:23:46;;;;;;;4.05;2.05;;;17.50;1.00;;;;;;4974675;28;20049;-35
2023/04/18 05:26:13;;;;;;;4.40;2.40;;;17.60;1.00;;;;;;4975468;28;20117;-35
2023/04/18 05:28:40;;;;;;;3.88;1.95;;;17.50;1.00;;;;;;4975668;28;20053;-34
2023/04/18 05:31:07;;;;;;;3.83;2.05;;;17.50;1.00;;;;;;4975443;28;20047;-34
2023/04/18 05:33:33;;;;;;;3.42;2.25;;;17.50;1.00;;;;;;4974620;28;20051;-34
2023/04/18 05:36:00;;;;;;;5.57;2.30;;;17.50;1.00;;;;;;4975287;28;20245;-35
2023/04/18 05:38:27;;;;;;;6.03;2.95;;;17.50;1.00;;;;;;4975465;28;20111;-35
2023/04/18 05:40:54;;;;;;;3.92;2.17;;;17.50;1.00;;;;;;4975213;28;20054;-35
2023/04/18 05:43:21;;;;;;;3.25;2.22;;;17.50;1.00;;;;;;4974456;28;20071;-35
2023/04/18 05:45:50;;;;;;;6.47;1.80;;;17.50;1.00;;;;;;4975271;28;20511;-35
2023/04/18 05:48:18;;;;;;;4.40;2.75;;;17.50;1.00;;;;;;4974958;28;20042;-34
2023/04/18 05:50:44;;;;;;;5.18;2.25;;;17.40;1.00;;;;;;4974598;28;20054;-34
2023/04/18 05:53:11;;;;;;;3.95;2.53;;;17.40;1.00;;;;;;4974264;28;20050;-35
2023/04/18 05:55:39;;;;;;;5.97;2.10;;;17.40;1.00;;;;;;4975208;28;20070;-35
2023/04/18 05:58:06;;;;;;;4.35;2.05;;;17.40;1.00;;;;;;4974944;28;20167;-34
2023/04/18 06:00:33;;;;;;;5.25;2.47;;;17.40;1.00;;;;;;4974663;28;20047;-34
2023/04/18 06:03:00;;;;;;;3.78;2.40;;;17.40;1.00;;;;;;4974048;28;20034;-34
2023/04/18 06:05:28;;;;;;;4.40;2.22;;;17.40;1.00;;;;;;4974872;28;20062;-34
2023/04/18 06:07:55;;;;;;;6.28;3.13;;;17.40;1.00;;;;;;4974737;28;20042;-34
2023/04/18 06:10:22;;;;;;;3.97;1.80;;;17.40;1.00;;;;;;4974676;28;20118;-34
2023/04/18 06:12:48;;;;;;;6.38;2.10;;;17.40;1.00;;;;;;4973901;28;20050;-34
2023/04/18 06:15:15;;;;;;;4.15;2.08;;;17.40;1.00;;;;;;4974903;28;20057;-35
2023/04/18 06:17:43;;;;;;;5.38;2.30;;;17.40;1.00;;;;;;4974495;28;20043;-34
2023/04/18 06:20:10;;;;;;;4.22;2.15;;;17.40;1.00;;;;;;4973488;28;20571;-35
2023/04/18 06:22:37;;;;;;;5.30;2.65;;;17.40;1.00;;;;;;4973600;28;20047;-34
2023/04/18 06:25:10;;;;;;;5.45;2.70;;;17.40;1.00;;;;;;4974463;28;20446;-34
2023/04/18 06:27:37;;;;;;;4.65;2.28;;;17.40;1.00;;;;;;4974407;28;20518;-34
2023/04/18 06:30:05;;;;;;;4.30;2.30;;;17.40;1.00;;;;;;4974413;28;20043;-34
2023/04/18 06:32:32;;;;;;;6.88;2.47;;;17.30;1.00;;;;;;4973832;28;20046;-34
2023/04/18 06:34:59;;;;;;;4.20;2.33;;;17.30;1.00;;;;;;4974103;28;20066;-34
2023/04/18 06:37:26;;;;;;;7.15;2.42;;;17.30;1.00;;;;;;4974069;28;20050;-34
2023/04/18 06:39:53;;;;;;;7.45;3.13;;;17.30;1.00;;;;;;4974213;28;20208;-34
2023/04/18 06:42:20;;;;;;;3.78;2.40;;;17.30;1.00;;;;;;4973674;28;20046;-34
2023/04/18 06:44:48;;;;;;;4.85;2.80;;;17.30;1.00;;;;;;4973758;28;20131;-35
2023/04/18 06:47:15;;;;;;;6.13;2.60;;;17.30;1.00;;;;;;4973928;28;20046;-34
2023/04/18 06:49:42;;;;;;;5.10;2.17;;;17.30;1.00;;;;;;4973931;28;20047;-34
2023/04/18 06:52:09;;;;;;;5.97;3.15;;;17.30;1.00;;;;;;4973760;28;20589;-34
2023/04/18 06:54:36;;;;;;;5.88;2.97;;;17.30;1.00;;;;;;4973377;28;20051;-34
2023/04/18 06:57:03;;;;;;;5.43;2.58;;;17.30;1.00;;;;;;4973755;28;20053;-34
2023/04/18 06:59:29;;;;;;;4.47;1.92;;;17.30;1.00;;;;;;4973820;28;20049;-35
2023/04/18 07:01:56;;;;;;;6.28;2.78;;;17.30;1.00;;;;;;4973271;28;20422;-34
2023/04/18 07:04:23;;;;;;;6.07;2.40;;;17.30;1.00;;;;;;4972433;28;20483;-34
2023/04/18 07:06:51;;;;;;;5.07;2.95;;;17.30;1.00;;;;;;4973445;28;20038;-34
2023/04/18 07:09:18;;;;;;;5.10;2.83;;;17.30;1.00;;;;;;4973774;28;20077;-34
2023/04/18 07:11:45;;;;;;;3.88;2.65;;;17.30;1.00;;;;;;4973529;28;20043;-34
2023/04/18 07:14:11;;;;;;;4.55;2.83;;;17.20;1.00;;;;;;4972880;28;20101;-34
2023/04/18 07:16:39;;;;;;;5.95;2.38;;;17.30;1.00;;;;;;4973379;28;20121;-35
2023/04/18 07:19:05;;;;;;;7.07;3.08;;;17.30;1.00;;;;;;4973627;28;20039;-34
2023/04/18 07:21:32;;;;;;;3.65;2.40;;;17.30;1.00;;;;;;4973518;28;20462;-34
2023/04/18 07:23:59;;;;;;;4.93;2.25;;;17.20;1.00;;;;;;4972521;28;20039;-34
2023/04/18 07:26:26;;;;;;;5.22;2.40;;;17.20;1.00;;;;;;4973473;28;20049;-35
2023/04/18 07:28:53;;;;;;;2.95;2.13;;;17.20;1.00;;;;;;4973457;28;20483;-34
2023/04/18 07:31:20;;;;;;;4.93;2.55;;;17.20;1.00;;;;;;4973273;28;20039;-35
2023/04/18 07:33:46;;;;;;;4.90;2.40;;;17.20;1.00;;;;;;4972368;28;20046;-34
2023/04/18 07:36:13;;;;;;;4.32;2.40;;;17.20;1.00;;;;;;4973188;28;20510;-35
2023/04/18 07:38:40;;;;;;;6.68;3.08;;;17.30;1.00;;;;;;4973224;28;20129;-34
2023/04/18 07:41:07;;;;;;;3.45;2.35;;;17.20;1.00;;;;;;4973155;28;20134;-35
2023/04/18 07:43:34;;;;;;;4.72;2.58;;;17.20;1.00;;;;;;4972416;28;20066;-34
2023/04/18 07:46:01;;;;;;;5.28;2.50;;;17.20;1.00;;;;;;4973009;28;20358;-38
2023/04/18 07:48:28;;;;;;;4.28;2.70;;;17.20;1.00;;;;;;4973136;28;20046;-35
2023/04/18 07:50:55;;;;;;;5.63;3.17;;;17.20;1.00;;;;;;4973197;28;20035;-34
2023/04/18 07:53:22;;;;;;;4.05;2.85;;;17.20;1.00;;;;;;4972372;28;20057;-35
2023/04/18 07:55:49;;;;;;;3.63;2.72;;;17.20;1.00;;;;;;4973163;28;20046;-34
2023/04/18 07:58:16;;;;;;;8.43;3.30;;;17.20;1.00;;;;;;4972874;28;20046;-34
2023/04/18 08:00:43;;;;;;;2.42;2.20;;;17.20;1.00;;;;;;4972947;28;20133;-35
2023/04/18 08:03:11;;;;;;;4.00;2.78;;;17.20;1.00;;;;;;4972048;28;20046;-34
2023/04/18 08:05:39;;;;;;;4.22;3.15;;;17.30;1.00;;;;;;4973003;28;20035;-34
2023/04/18 08:08:07;;;;;;;5.47;3.08;;;17.20;1.00;;;;;;4973072;28;20399;-34
2023/04/18 08:10:35;;;;;;;3.97;2.83;;;17.20;1.00;;;;;;4972874;28;20141;-34
2023/04/18 08:13:02;;;;;;;3.70;2.22;;;17.20;1.00;;;;;;4972116;28;20074;-34
2023/04/18 08:15:31;;;;;;;4.88;3.25;;;17.20;1.00;;;;;;4976522;28;20046;-34
2023/04/18 08:17:59;;;;;;;3.70;2.60;;;17.20;1.00;;;;;;4976687;28;20047;-35
2023/04/18 08:20:26;;;;;;;5.57;3.38;;;17.30;1.00;;;;;;4976768;28;20063;-34
2023/04/18 08:22:53;;;;;;;4.63;2.72;;;17.30;1.00;;;;;;4976178;28;20046;-34
2023/04/18 08:25:35;;;;;;;4.53;2.90;;;17.30;1.00;;;;;;4976642;28;20046;-34
2023/04/18 08:28:02;;;;;;;5.25;2.85;;;17.30;1.00;;;;;;4976527;28;20046;-34
2023/04/18 08:30:29;;;;;;;5.53;2.90;;;17.30;1.00;;;;;;4976541;28;20042;-34
2023/04/18 08:32:56;;;;;;;3.97;3.10;;;17.30;1.00;;;;;;4975812;28;20062;-34
2023/04/18 08:35:23;;;;;;;4.30;2.63;;;17.30;1.00;;;;;;4976561;28;20043;-34
2023/04/18 08:37:50;;;;;;;4.50;2.92;;;17.30;1.00;;;;;;4976287;28;20045;-34
2023/04/18 08:40:17;;;;;;;3.35;2.65;;;17.30;1.00;;;;;;4976035;28;20042;-34
2023/04/18 08:42:44;;;;;;;6.38;3.28;;;17.30;1.00;;;;;;4975544;28;20039;-35
2023/04/18 08:45:13;;;;;;;3.97;3.33;;;17.30;1.00;;;;;;4976356;28;20047;-34
2023/04/18 08:47:41;;;;;;;5.75;3.53;;;17.30;1.00;;;;;;5021497;22;20049;-35
2023/04/18 08:50:09;;;;;;;5.57;2.83;;;17.40;1.00;;;;;;5034933;28;20399;-31
2023/04/18 08:52:38;;;;;;;3.53;2.70;;;17.40;1.00;;;;;;5034399;28;20145;-33
2023/04/18 08:55:06;;;;;;;4.15;2.65;;;17.40;1.00;;;;;;5034919;28;20064;-32
2023/04/18 08:57:34;;;;;;;4.25;3.00;;;17.40;1.00;;;;;;5034712;28;20081;-34
2023/04/18 09:00:08;;;;;;;5.43;3.08;;;17.40;1.00;;;;;;5035079;28;20049;-35
2023/04/18 09:02:43;;;;;;;4.15;2.75;;;17.40;1.00;;;;;;5034389;28;20049;-36
2023/04/18 09:05:12;;;;;;;3.95;2.90;;;17.40;1.00;;;;;;5034442;28;20069;-38
2023/04/18 09:07:40;;;;;;;5.70;3.00;;;17.40;1.00;;;;;;5034597;28;20414;-34
2023/04/18 09:10:07;;;;;;;3.55;2.78;;;17.40;1.00;;;;;;5034677;28;20450;-33
2023/04/18 09:12:48;;;;;;;4.53;2.72;;;17.50;1.00;;;;;;5034235;28;20049;-37
2023/04/18 09:15:19;;;;;;;7.60;3.25;;;17.50;1.00;;;;;;5034664;28;20050;-35
2023/04/18 09:17:56;;;;;;;4.68;2.38;;;17.50;1.00;;;;;;5034393;28;20075;-36
2023/04/18 09:20:34;;;;;;;4.88;3.35;;;17.50;1.00;;;;;;5034554;28;20046;-35
2023/04/18 09:23:13;;;;;;;5.15;2.75;;;17.50;1.00;;;;;;5033752;28;20470;-33
2023/04/18 09:25:45;;;;;;;4.35;2.28;;;17.50;1.00;;;;;;5033459;28;20080;-39
2023/04/18 09:28:28;;;;;;;4.80;2.60;;;17.50;1.00;;;;;;5034282;28;20041;-38
2023/04/18 09:30:56;;;;;;;4.93;2.70;;;17.60;1.00;;;;;;5034268;28;20046;-34
2023/04/18 09:33:31;;;;;;;6.55;3.65;;;17.50;1.00;;;;;;5033493;28;20049;-34
2023/04/18 09:36:20;;;;;;;4.20;3.08;;;17.50;1.00;;;;;;5034208;28;20049;-34
2023/04/18 09:38:50;;;;;;;6.38;3.30;;;17.50;1.00;;;;;;5034159;28;20046;-32
2023/04/18 09:41:21;;;;;;;5.35;2.63;;;17.60;1.00;;;;;;5034163;28;20472;-33
2023/04/18 09:43:48;;;;;;;7.80;2.83;;;17.60;1.00;;;;;;5033333;28;20452;-35
2023/04/18 09:46:16;;;;;;;5.13;2.92;;;17.60;1.00;;;;;;5033841;28;20053;-35
2023/04/18 09:48:43;;;;;;;5.35;2.85;;;17.60;1.00;;;;;;5033688;28;20454;-31
2023/04/18 09:51:15;;;;;;;8.10;4.40;;;17.60;1.00;;;;;;5034125;28;20080;-33
2023/04/18 09:53:43;;;;;;;5.95;3.67;;;17.60;1.00;;;;;;5033309;28;20049;-31
2023/04/18 09:56:24;;;;;;;6.82;3.10;;;17.60;1.00;;;;;;5033625;28;20049;-34
2023/04/18 09:58:55;;;;;;;6.65;3.33;;;17.60;1.00;;;;;;5033750;28;20041;-39
2023/04/18 10:01:27;;;;;;;5.03;2.70;;;17.60;1.00;;;;;;5033287;28;20053;-38
2023/04/18 10:03:55;;;;;;;5.40;3.20;;;17.60;1.00;;;;;;5032837;28;20045;-35
2023/04/18 10:06:26;;;;;;;6.80;3.70;;;17.60;1.00;;;;;;5033466;28;20490;-35
2023/04/18 10:08:53;;;;;;;6.10;3.30;;;17.70;1.00;;;;;;5033767;28;20038;-32
2023/04/18 10:11:22;;;;;;;6.90;3.83;;;17.60;1.00;;;;;;5033474;28;20404;-36
2023/04/18 10:13:52;;;;;;;9.13;3.85;;;17.70;1.00;;;;;;5032464;28;20489;-32
2023/04/18 10:16:19;;;;;;;4.72;3.20;;;17.70;1.00;;;;;;5015405;28;20057;-32
2023/04/18 10:18:49;;;;;;;4.97;3.17;;;17.70;1.00;;;;;;5033634;28;20124;-38
2023/04/18 10:21:16;;;;;;;6.53;3.47;;;17.70;1.00;;;;;;5033331;28;20049;-34
2023/04/18 10:23:44;;;;;;;4.38;2.80;;;17.70;1.00;;;;;;5014768;28;20041;-34
2023/04/18 10:26:11;;;;;;;4.65;2.63;;;17.70;1.00;;;;;;5033080;28;20037;-36
2023/04/18 10:28:57;;;;;;;5.82;3.03;;;17.70;1.00;;;;;;5033148;28;20041;-35
2023/04/18 10:31:28;;;;;;;5.45;3.47;;;17.70;1.00;;;;;;5033344;28;20046;-34
2023/04/18 10:33:57;;;;;;;4.75;3.22;;;17.70;1.00;;;;;;5032141;28;20493;-34
2023/04/18 10:36:27;;;;;;;7.03;3.10;;;17.70;1.00;;;;;;5032863;28;20099;-38
2023/04/18 10:38:59;;;;;;;5.18;3.22;;;17.70;1.00;;;;;;5032920;28;20489;-36
2023/04/18 10:41:31;;;;;;;3.85;2.47;;;17.80;1.00;;;;;;5032958;28;20128;-37
2023/04/18 10:44:13;;;;;;;5.40;3.47;;;17.80;1.00;;;;;;5032217;28;20045;-36
2023/04/18 10:46:52;;;;;;;4.22;3.40;;;17.80;1.00;;;;;;5032877;28;20129;-34
2023/04/18 10:49:19;;;;;;;6.03;3.13;;;17.80;1.00;;;;;;5032591;28;20037;-35
2023/04/18 10:51:47;;;;;;;5.72;3.17;;;17.80;1.00;;;;;;5032703;28;20049;-37
2023/04/18 10:54:38;;;;;;;7.10;3.67;;;17.80;1.00;;;;;;5032025;28;20045;-32
2023/04/18 10:57:10;;;;;;;5.63;3.50;;;17.80;1.00;;;;;;5032711;28;20041;-37
2023/04/18 10:59:38;;;;;;;4.45;3.38;;;17.80;1.00;;;;;;5032692;28;20135;-32
2023/04/18 11:02:24;;;;;;;4.30;3.15;;;17.80;1.00;;;;;;5032454;28;20502;-34
2023/04/18 11:05:05;;;;;;;5.68;3.17;;;17.80;1.00;;;;;;5032167;28;20042;-36
2023/04/18 11:07:36;;;;;;;4.53;3.03;;;17.90;1.00;;;;;;5032361;28;20099;-37
2023/04/18 11:10:05;;;;;;;5.07;2.88;;;17.90;1.00;;;;;;5032312;28;20091;-33
2023/04/18 11:12:33;;;;;;;5.82;3.30;;;17.80;1.00;;;;;;5031894;28;20045;-35
2023/04/18 11:15:08;;;;;;;4.57;3.33;;;17.80;1.00;;;;;;5032056;28;20037;-37
2023/04/18 11:17:37;;;;;;;6.63;3.53;;;17.80;1.00;;;;;;5032216;28;20107;-33
2023/04/18 11:20:11;;;;;;;7.18;4.15;;;17.80;1.00;;;;;;5032248;28;20078;-35
2023/04/18 11:22:45;;;;;;;9.57;3.30;;;17.80;1.00;;;;;;5031300;28;20073;-36
2023/04/18 11:25:12;;;;;;;6.00;3.45;;;17.90;1.00;;;;;;5031985;28;20041;-32
2023/04/18 11:27:53;;;;;;;6.25;3.13;;;17.80;1.00;;;;;;5032050;28;20065;-33
2023/04/18 11:30:20;;;;;;;4.65;3.35;;;17.80;1.00;;;;;;5032174;28;20045;-34
2023/04/18 11:32:47;;;;;;;4.55;3.25;;;17.80;1.00;;;;;;5031671;28;20049;-35
2023/04/18 11:35:15;;;;;;;4.47;3.22;;;17.80;1.00;;;;;;5031974;28;20060;-33
2023/04/18 11:37:44;;;;;;;6.90;3.30;;;17.80;1.00;;;;;;5032058;28;20473;-33
2023/04/18 11:40:15;;;;;;;7.07;3.45;;;17.90;1.00;;;;;;5032104;28;20408;-35
2023/04/18 11:42:41;;;;;;;5.13;3.60;;;17.80;1.00;;;;;;5031105;28;20052;-36
2023/04/18 11:45:10;;;;;;;5.28;3.03;;;17.80;1.00;;;;;;5032298;28;20041;-34
2023/04/18 11:47:37;;;;;;;5.13;3.20;;;17.80;1.00;;;;;;5031828;28;20048;-34
2023/04/18 11:50:06;;;;;;;3.55;2.55;;;17.80;1.00;;;;;;5031233;28;20136;-35
2023/04/18 11:52:34;;;;;;;7.65;3.83;;;17.90;1.00;;;;;;5031660;28;20065;-33
2023/04/18 11:55:20;;;;;;;4.65;2.72;;;17.80;1.00;;;;;;5013863;28;20050;-37
2023/04/18 11:57:55;;;;;;;4.25;3.20;;;17.80;1.00;;;;;;5031736;28;20236;-39
2023/04/18 12:00:37;;;;;;;6.47;3.47;;;17.80;1.00;;;;;;5014348;28;20053;-37
2023/04/18 12:03:17;;;;;;;6.78;2.90;;;17.90;1.00;;;;;;5031057;28;20401;-35
2023/04/18 12:05:44;;;;;;;5.30;3.30;;;17.80;1.00;;;;;;5031656;28;20045;-33
2023/04/18 12:08:16;;;;;;;4.53;3.05;;;17.80;1.00;;;;;;5031801;28;20044;-38
2023/04/18 12:10:49;;;;;;;3.85;2.90;;;17.80;1.00;;;;;;5031890;28;20128;-37
2023/04/18 12:13:17;;;;;;;3.97;2.83;;;17.80;1.00;;;;;;5030573;28;20405;-37
2023/04/18 12:15:45;;;;;;;5.15;3.25;;;17.80;1.00;;;;;;5032046;28;20070;-37
2023/04/18 12:18:15;;;;;;;5.07;3.22;;;17.80;1.00;;;;;;5031700;28;20045;-37
2023/04/18 12:20:49;;;;;;;4.88;3.13;;;17.80;1.00;;;;;;5031550;28;20111;-34
2023/04/18 12:23:35;;;;;;;3.88;3.00;;;17.80;1.00;;;;;;5031085;28;20080;-33
2023/04/18 12:26:04;;;;;;;4.43;2.83;;;17.80;1.00;;;;;;5031473;28;20091;-37
2023/04/18 12:28:32;;;;;;;5.05;3.47;;;17.80;1.00;;;;;;5031426;28;20116;-40
2023/04/18 12:30:59;;;;;;;5.53;3.13;;;17.80;1.00;;;;;;5031480;28;20045;-38
2023/04/18 12:33:26;;;;;;;6.53;3.22;;;17.80;1.00;;;;;;5012737;28;20460;-39
2023/04/18 12:35:53;;;;;;;4.30;3.05;;;17.80;1.00;;;;;;5031389;28;20041;-39
2023/04/18 12:38:21;;;;;;;5.95;3.35;;;17.80;1.00;;;;;;5031102;28;20603;-34
2023/04/18 12:40:49;;;;;;;4.55;3.00;;;17.80;1.00;;;;;;5031483;28;20041;-35
2023/04/18 12:43:17;;;;;;;4.95;3.25;;;17.80;1.00;;;;;;5030567;28;20048;-37
2023/04/18 12:45:45;;;;;;;3.95;2.58;;;17.80;1.00;;;;;;5031374;28;20433;-35
2023/04/18 12:48:12;;;;;;;5.60;3.60;;;17.80;1.00;;;;;;5031162;28;20109;-35
2023/04/18 12:50:39;;;;;;;6.30;2.88;;;17.80;1.00;;;;;;5031202;28;20540;-35
2023/04/18 12:53:06;;;;;;;4.82;2.40;;;17.80;1.00;;;;;;5030472;28;20064;-32
2023/04/18 12:55:33;;;;;;;4.50;3.10;;;17.80;1.00;;;;;;5031486;28;20045;-34
2023/04/18 12:58:00;;;;;;;6.28;3.33;;;17.80;1.00;;;;;;5031171;28;20084;-37
2023/04/18 13:00:29;;;;;;;5.90;2.83;;;17.80;1.00;;;;;;5031375;28;20384;-33
2023/04/18 13:02:57;;;;;;;3.42;2.53;;;17.80;1.00;;;;;;5034042;28;20049;-34
2023/04/18 13:05:26;;;;;;;4.93;2.83;;;17.80;1.00;;;;;;5034699;28;20052;-35
2023/04/18 13:07:57;;;;;;;5.15;2.85;;;17.80;1.00;;;;;;5034775;28;20042;-33